Stephen L. — WDE7070 — position and weather

sailwx.info

Track history (hours):
 
Tides and Currents Weather Stations Pressure Air Temp Water Temp Dewpoint Dewpoint Depression Visibility Wind Speed Wind Dir Waves Ship Positions

Stephen L.

Owner: TRIPLE S MARINE, LLC, MORGAN CITY, LA. More information available from US FCC via Universal Licensing System and Coast Guard Vessel Documentation Center.

Last reported at 2014-Nov-16 12:32 UTC. Time now 2014-Nov-24 12:28 UTC.
Position N 29°52' W 091°25'.

Length 20 m.

Type: Ship. MMSI: 367388580.

Date/timePositionNaut miles runAvg speedWind from/ knotsBaromVisibWave heightAir tempDewpointWater temp
2014-Nov-16 12:32N 29°52' W 091°25'6 6.1
2014-Nov-16 11:33N 29°47' W 091°22'6 5.6
2014-Nov-16 10:33N 29°46' W 091°16'5 4.6
2014-Nov-16 09:33N 29°42' W 091°13'2 2.1
2014-Nov-16 08:33N 29°40' W 091°14'0 0.0
2014-Nov-16 07:33N 29°40' W 091°14'0 0.2
2014-Nov-16 06:33N 29°40' W 091°14'1 1.4
2014-Nov-16 05:33N 29°39' W 091°16'4 4.4
2014-Nov-16 04:33N 29°38' W 091°21'6 5.9
2014-Nov-16 03:28N 29°41' W 091°28'177 3.6
2014-Nov-14 02:30N 29°28' W 094°51'6 6.6
2014-Nov-14 01:33N 29°33' W 094°55'7 7.0
2014-Nov-14 00:33N 29°40' W 094°58'7 7.1
2014-Nov-13 23:33N 29°45' W 095°04'6 6.0
2014-Nov-13 22:33N 29°45' W 095°11'8 0.4
2014-Nov-13 00:27N 29°43' W 095°01'6 7.1
2014-Nov-12 23:33N 29°38' W 094°58'8 7.9
2014-Nov-12 22:33N 29°31' W 094°53'  
2014-Nov-09 11:32N 29°43' W 091°32'7 6.6
2014-Nov-09 10:33N 29°40' W 091°26'7 6.9
2014-Nov-09 09:34N 29°39' W 091°18'6 6.4
2014-Nov-09 08:34N 29°41' W 091°11'5 4.7
2014-Nov-09 07:34N 29°38' W 091°07'6 6.1
2014-Nov-09 06:33N 29°37' W 090°60'6 6.4
2014-Nov-09 05:33N 29°33' W 090°54'2 1.7
2014-Nov-09 04:31N 29°32' W 090°52'0 0.0
2014-Nov-09 03:33N 29°32' W 090°52'0 0.0
2014-Nov-09 02:33N 29°32' W 090°52'0 0.0
2014-Nov-09 01:33N 29°32' W 090°52'12 4.8
2014-Nov-08 23:09N 29°36' W 090°40'10 5.8
2014-Nov-08 21:26N 29°34' W 090°29'0 0.0
2014-Nov-08 01:21N 29°34' W 090°29'6 7.5
2014-Nov-08 00:32N 29°35' W 090°36'18 5.7
2014-Nov-07 21:22N 29°34' W 090°57'6 6.5
2014-Nov-07 20:22N 29°37' W 091°03'4 4.8
2014-Nov-07 19:33N 29°40' W 091°06'0 0.0
2014-Nov-07 18:32N 29°40' W 091°06'0 0.0
2014-Nov-07 16:09N 29°40' W 091°06'0 0.0
2014-Nov-07 15:32N 29°40' W 091°06'0 0.0
2014-Nov-07 14:32N 29°40' W 091°06'0 0.0
2014-Nov-07 13:33N 29°40' W 091°06'0 0.0
2014-Nov-07 12:33N 29°40' W 091°06'0 0.0
2014-Nov-07 11:33N 29°40' W 091°06'0 0.0
2014-Nov-07 10:34N 29°40' W 091°06'0 0.0
2014-Nov-07 09:34N 29°40' W 091°06'0 0.0
2014-Nov-07 08:33N 29°40' W 091°06'0 0.0
2014-Nov-07 07:34N 29°40' W 091°06'0 0.0
2014-Nov-07 06:34N 29°40' W 091°06'0 0.0
2014-Nov-07 05:34N 29°40' W 091°06'0 0.0
2014-Nov-07 04:33N 29°40' W 091°06'0 0.0
2014-Nov-07 03:34N 29°40' W 091°06'0 0.0
2014-Nov-07 02:34N 29°40' W 091°06'0 0.0
2014-Nov-07 01:34N 29°40' W 091°06'0 0.0
2014-Nov-07 00:33N 29°40' W 091°06'0 0.0
2014-Nov-06 23:34N 29°40' W 091°06'0 0.0
2014-Nov-06 22:33N 29°40' W 091°06'0 0.0
2014-Nov-06 21:33N 29°40' W 091°06'0 0.0
2014-Nov-06 20:34N 29°40' W 091°06'0 0.0
2014-Nov-06 19:34N 29°40' W 091°06'1 0.8
2014-Nov-06 18:34N 29°40' W 091°06'2 1.7
2014-Nov-06 17:34N 29°40' W 091°08'5 4.7
2014-Nov-06 16:33N 29°42' W 091°13'5 5.3
2014-Nov-06 15:34N 29°39' W 091°08'2 1.8
2014-Nov-06 14:34N 29°40' W 091°06'0 0.0
2014-Nov-06 13:34N 29°40' W 091°06'0 0.0
2014-Nov-06 12:34N 29°40' W 091°06'  
Track history (hours):
 
Tides and Currents Weather Stations Pressure Air Temp Water Temp Dewpoint Dewpoint Depression Visibility Wind Speed Wind Dir Waves Ship Positions

Stephen L.

Owner: TRIPLE S MARINE, LLC, MORGAN CITY, LA. More information available from US FCC via Universal Licensing System and Coast Guard Vessel Documentation Center.

Last reported at 2014-Nov-16 12:32 UTC. Time now 2014-Nov-24 12:28 UTC.
Position N 29°52' W 091°25'.

Length 20 m.

Type: Ship. MMSI: 367388580.

Date/timePositionNaut miles runAvg speedWind from/ knotsBaromVisibWave heightAir tempDewpointWater temp
2014-Nov-16 12:32N 29°52' W 091°25'6 6.1
2014-Nov-16 11:33N 29°47' W 091°22'6 5.6
2014-Nov-16 10:33N 29°46' W 091°16'5 4.6
2014-Nov-16 09:33N 29°42' W 091°13'2 2.1
2014-Nov-16 08:33N 29°40' W 091°14'0 0.0
2014-Nov-16 07:33N 29°40' W 091°14'0 0.2
2014-Nov-16 06:33N 29°40' W 091°14'1 1.4
2014-Nov-16 05:33N 29°39' W 091°16'4 4.4
2014-Nov-16 04:33N 29°38' W 091°21'6 5.9
2014-Nov-16 03:28N 29°41' W 091°28'177 3.6
2014-Nov-14 02:30N 29°28' W 094°51'6 6.6
2014-Nov-14 01:33N 29°33' W 094°55'7 7.0
2014-Nov-14 00:33N 29°40' W 094°58'7 7.1
2014-Nov-13 23:33N 29°45' W 095°04'6 6.0
2014-Nov-13 22:33N 29°45' W 095°11'8 0.4
2014-Nov-13 00:27N 29°43' W 095°01'6 7.1
2014-Nov-12 23:33N 29°38' W 094°58'8 7.9
2014-Nov-12 22:33N 29°31' W 094°53'  
2014-Nov-09 11:32N 29°43' W 091°32'7 6.6
2014-Nov-09 10:33N 29°40' W 091°26'7 6.9
2014-Nov-09 09:34N 29°39' W 091°18'6 6.4
2014-Nov-09 08:34N 29°41' W 091°11'5 4.7
2014-Nov-09 07:34N 29°38' W 091°07'6 6.1
2014-Nov-09 06:33N 29°37' W 090°60'6 6.4
2014-Nov-09 05:33N 29°33' W 090°54'2 1.7
2014-Nov-09 04:31N 29°32' W 090°52'0 0.0
2014-Nov-09 03:33N 29°32' W 090°52'0 0.0
2014-Nov-09 02:33N 29°32' W 090°52'0 0.0
2014-Nov-09 01:33N 29°32' W 090°52'12 4.8
2014-Nov-08 23:09N 29°36' W 090°40'10 5.8
2014-Nov-08 21:26N 29°34' W 090°29'0 0.0
2014-Nov-08 01:21N 29°34' W 090°29'6 7.5
2014-Nov-08 00:32N 29°35' W 090°36'18 5.7
2014-Nov-07 21:22N 29°34' W 090°57'6 6.5
2014-Nov-07 20:22N 29°37' W 091°03'4 4.8
2014-Nov-07 19:33N 29°40' W 091°06'0 0.0
2014-Nov-07 18:32N 29°40' W 091°06'0 0.0
2014-Nov-07 16:09N 29°40' W 091°06'0 0.0
2014-Nov-07 15:32N 29°40' W 091°06'0 0.0
2014-Nov-07 14:32N 29°40' W 091°06'0 0.0
2014-Nov-07 13:33N 29°40' W 091°06'0 0.0
2014-Nov-07 12:33N 29°40' W 091°06'0 0.0
2014-Nov-07 11:33N 29°40' W 091°06'0 0.0
2014-Nov-07 10:34N 29°40' W 091°06'0 0.0
2014-Nov-07 09:34N 29°40' W 091°06'0 0.0
2014-Nov-07 08:33N 29°40' W 091°06'0 0.0
2014-Nov-07 07:34N 29°40' W 091°06'0 0.0
2014-Nov-07 06:34N 29°40' W 091°06'0 0.0
2014-Nov-07 05:34N 29°40' W 091°06'0 0.0
2014-Nov-07 04:33N 29°40' W 091°06'0 0.0
2014-Nov-07 03:34N 29°40' W 091°06'0 0.0
2014-Nov-07 02:34N 29°40' W 091°06'0 0.0
2014-Nov-07 01:34N 29°40' W 091°06'0 0.0
2014-Nov-07 00:33N 29°40' W 091°06'0 0.0
2014-Nov-06 23:34N 29°40' W 091°06'0 0.0
2014-Nov-06 22:33N 29°40' W 091°06'0 0.0
2014-Nov-06 21:33N 29°40' W 091°06'0 0.0
2014-Nov-06 20:34N 29°40' W 091°06'0 0.0
2014-Nov-06 19:34N 29°40' W 091°06'1 0.8
2014-Nov-06 18:34N 29°40' W 091°06'2 1.7
2014-Nov-06 17:34N 29°40' W 091°08'5 4.7
2014-Nov-06 16:33N 29°42' W 091°13'5 5.3
2014-Nov-06 15:34N 29°39' W 091°08'2 1.8
2014-Nov-06 14:34N 29°40' W 091°06'0 0.0
2014-Nov-06 13:34N 29°40' W 091°06'0 0.0
2014-Nov-06 12:34N 29°40' W 091°06'  

Dump ship's entire track history